Time;durP1;ratioP1;P1;durP2;ratioP2;P2;SDS_P1;SDS_P2;PMS_P1;PMS_P2;Temp;Humidity;BMP_temperature;BMP_pressure;BME280_temperature;BME280_humidity;BME280_pressure;Samples;Min_cycle;Max_cycle;Signal;HPM_P1;HPM_P2
2021/12/30 00:00:15;;;;;;;34.30;6.05;;;10.00;99.90;;;;;;5023542;28;20052;-80
2021/12/30 00:02:41;;;;;;;31.40;5.50;;;10.00;99.90;;;;;;5008146;28;20537;-80
2021/12/30 00:05:08;;;;;;;29.85;6.18;;;10.00;99.90;;;;;;5025383;28;20508;-80
2021/12/30 00:07:33;;;;;;;31.92;6.50;;;10.10;99.90;;;;;;5013207;28;20033;-80
2021/12/30 00:09:59;;;;;;;40.05;6.70;;;10.00;99.90;;;;;;5016532;28;20123;-80
2021/12/30 00:12:25;;;;;;;36.20;6.05;;;10.00;99.90;;;;;;5010082;28;20509;-80
2021/12/30 00:14:51;;;;;;;42.40;7.20;;;10.00;99.90;;;;;;5039470;28;20107;-80
2021/12/30 00:17:17;;;;;;;37.42;6.28;;;10.10;99.90;;;;;;5015309;28;20039;-79
2021/12/30 00:19:42;;;;;;;38.38;6.32;;;10.00;99.90;;;;;;5001638;28;20053;-80
2021/12/30 00:22:09;;;;;;;37.83;6.28;;;9.90;99.90;;;;;;5011377;28;20041;-80
2021/12/30 00:24:35;;;;;;;37.42;7.20;;;9.90;99.90;;;;;;4998514;28;20021;-80
2021/12/30 00:27:00;;;;;;;34.80;6.43;;;9.90;99.90;;;;;;5023269;28;20040;-80
2021/12/30 00:29:26;;;;;;;38.30;6.90;;;9.90;99.90;;;;;;5015038;28;20050;-80
2021/12/30 00:31:52;;;;;;;37.13;6.72;;;9.90;99.90;;;;;;5036468;28;20055;-80
2021/12/30 00:34:18;;;;;;;41.88;7.97;;;9.90;99.90;;;;;;5029647;28;20073;-81
2021/12/30 00:36:47;;;;;;;39.90;6.30;;;9.90;99.90;;;;;;5038454;28;20038;-80
2021/12/30 00:39:13;;;;;;;32.80;6.50;;;10.00;99.90;;;;;;4997210;28;20041;-80
2021/12/30 00:41:39;;;;;;;41.20;7.25;;;10.00;99.90;;;;;;4996072;28;20500;-80
2021/12/30 00:44:08;;;;;;;38.45;7.05;;;10.00;99.90;;;;;;5036509;28;20040;-80
2021/12/30 00:46:33;;;;;;;47.85;7.03;;;9.90;99.90;;;;;;5000326;28;20437;-79
2021/12/30 00:48:59;;;;;;;46.75;7.22;;;9.90;99.90;;;;;;5023786;28;20140;-80
2021/12/30 00:51:28;;;;;;;41.88;7.18;;;9.90;99.90;;;;;;5014048;28;20041;-80
2021/12/30 00:53:53;;;;;;;49.88;7.47;;;9.90;99.90;;;;;;5011560;28;20447;-80
2021/12/30 00:56:19;;;;;;;39.80;7.70;;;9.90;99.90;;;;;;4997574;28;20041;-80
2021/12/30 00:58:45;;;;;;;44.25;8.98;;;10.00;99.90;;;;;;5008610;28;20102;-80
2021/12/30 01:01:11;;;;;;;40.63;8.07;;;10.00;99.90;;;;;;4998608;28;20026;-80
2021/12/30 01:03:36;;;;;;;37.70;6.47;;;10.00;99.90;;;;;;5001241;28;20033;-80
2021/12/30 01:06:03;;;;;;;40.30;7.40;;;9.90;99.90;;;;;;4999582;28;20056;-80
2021/12/30 01:08:32;;;;;;;44.80;7.57;;;9.90;99.90;;;;;;4995474;28;20033;-79
2021/12/30 01:11:01;;;;;;;49.13;7.80;;;9.90;99.90;;;;;;5011263;28;20041;-80
2021/12/30 01:13:30;;;;;;;42.15;7.13;;;9.70;99.90;;;;;;4999410;28;20037;-80
2021/12/30 01:16:03;;;;;;;42.55;7.53;;;9.70;99.90;;;;;;5011495;28;20045;-80
2021/12/30 01:18:55;;;;;;;45.08;7.40;;;9.60;99.90;;;;;;5038846;28;20041;-80
2021/12/30 01:21:24;;;;;;;44.80;7.63;;;9.60;99.90;;;;;;4998478;28;20044;-79
2021/12/30 01:23:50;;;;;;;32.05;6.18;;;9.40;99.90;;;;;;5017053;28;20045;-80
2021/12/30 01:26:16;;;;;;;40.05;6.68;;;9.40;99.90;;;;;;5001564;28;20068;-80
2021/12/30 01:28:42;;;;;;;41.63;6.97;;;9.30;99.90;;;;;;5041383;28;20092;-80
2021/12/30 01:31:09;;;;;;;42.53;8.02;;;9.30;99.90;;;;;;5002423;28;20072;-79
2021/12/30 01:33:43;;;;;;;46.83;8.02;;;9.30;99.90;;;;;;5003696;28;20052;-80
2021/12/30 01:36:08;;;;;;;46.95;7.95;;;9.20;99.90;;;;;;5000239;28;20049;-80
2021/12/30 01:38:34;;;;;;;47.78;7.30;;;9.20;99.90;;;;;;5021167;28;20056;-80
2021/12/30 01:41:01;;;;;;;45.45;7.65;;;9.20;99.90;;;;;;5016193;28;20068;-80
2021/12/30 01:43:28;;;;;;;36.08;7.60;;;9.20;99.90;;;;;;5030759;28;20029;-80
2021/12/30 01:45:56;;;;;;;46.90;8.18;;;9.10;99.90;;;;;;4996657;28;20444;-80
2021/12/30 01:48:22;;;;;;;40.38;7.65;;;9.10;99.90;;;;;;5032901;28;20045;-80
2021/12/30 01:50:49;;;;;;;47.95;7.45;;;9.10;99.90;;;;;;5016673;28;20052;-80
2021/12/30 01:53:15;;;;;;;32.00;6.60;;;9.10;99.90;;;;;;4995907;28;20098;-80
2021/12/30 01:55:43;;;;;;;44.17;6.90;;;9.10;99.90;;;;;;4998024;28;20053;-80
2021/12/30 01:58:11;;;;;;;41.42;7.07;;;9.20;99.90;;;;;;5033385;28;20452;-80
2021/12/30 02:00:39;;;;;;;41.28;7.25;;;9.20;99.90;;;;;;5024181;28;20064;-80
2021/12/30 02:03:06;;;;;;;40.70;6.93;;;9.10;99.90;;;;;;5004893;28;20068;-80
2021/12/30 02:05:37;;;;;;;43.78;7.18;;;9.10;99.90;;;;;;4997961;28;20079;-80
2021/12/30 02:08:07;;;;;;;41.38;7.10;;;9.10;99.90;;;;;;5002368;28;20574;-80
2021/12/30 02:10:35;;;;;;;40.92;7.70;;;9.10;99.90;;;;;;5011514;28;20428;-80
2021/12/30 02:13:01;;;;;;;39.08;7.45;;;9.00;99.90;;;;;;4996046;28;20037;-80
2021/12/30 02:15:28;;;;;;;47.45;7.45;;;9.00;99.90;;;;;;5002224;28;20053;-80
2021/12/30 02:17:54;;;;;;;42.42;6.78;;;9.10;99.90;;;;;;5018994;28;20465;-80
2021/12/30 02:20:43;;;;;;;42.08;7.35;;;9.00;99.90;;;;;;5012924;28;20037;-80
2021/12/30 02:23:10;;;;;;;42.20;8.48;;;9.10;99.90;;;;;;5009198;28;20037;-80
2021/12/30 02:25:39;;;;;;;40.30;6.82;;;9.00;99.90;;;;;;5011819;28;20476;-80
2021/12/30 02:28:06;;;;;;;51.47;8.25;;;9.00;99.90;;;;;;4998909;28;20044;-80
2021/12/30 02:30:32;;;;;;;42.47;7.10;;;9.00;99.90;;;;;;4999502;28;20595;-80
2021/12/30 02:32:58;;;;;;;53.53;7.90;;;9.10;99.90;;;;;;5019698;28;20408;-80
2021/12/30 02:35:24;;;;;;;41.05;6.70;;;9.10;99.90;;;;;;5013763;28;20044;-80
2021/12/30 02:37:52;;;;;;;40.60;7.95;;;9.00;99.90;;;;;;5017774;28;20040;-80
2021/12/30 02:40:36;;;;;;;38.55;7.25;;;9.00;99.90;;;;;;5009095;28;20276;-80
2021/12/30 02:43:03;;;;;;;43.13;7.22;;;9.00;99.90;;;;;;5025311;28;20044;-80
2021/12/30 02:45:29;;;;;;;43.15;6.85;;;9.00;99.90;;;;;;5007458;28;20589;-80
2021/12/30 02:47:54;;;;;;;45.22;7.60;;;9.00;99.90;;;;;;5039137;28;20496;-80
2021/12/30 02:50:20;;;;;;;45.35;8.60;;;9.00;99.90;;;;;;4994362;28;20037;-80
2021/12/30 02:52:46;;;;;;;38.35;7.47;;;9.20;99.90;;;;;;5003733;28;20053;-80
2021/12/30 02:55:12;;;;;;;42.25;7.60;;;9.20;99.90;;;;;;5018586;28;20051;-80
2021/12/30 02:57:37;;;;;;;47.65;7.80;;;9.20;99.90;;;;;;5022591;28;20045;-80
2021/12/30 03:00:06;;;;;;;49.92;8.75;;;9.20;99.90;;;;;;5013537;28;20037;-80
2021/12/30 03:02:36;;;;;;;44.90;9.38;;;9.30;99.90;;;;;;5045196;28;20499;-80
2021/12/30 03:05:04;;;;;;;40.80;8.98;;;9.40;99.90;;;;;;5003425;28;20040;-80
2021/12/30 03:07:30;;;;;;;45.00;9.13;;;9.40;99.90;;;;;;5026552;28;20913;-80
2021/12/30 03:09:55;;;;;;;43.47;10.27;;;9.50;99.90;;;;;;4999211;28;20143;-80
2021/12/30 03:12:21;;;;;;;49.92;10.48;;;9.50;99.90;;;;;;5021666;28;20037;-80
2021/12/30 03:14:47;;;;;;;50.10;9.93;;;9.50;99.90;;;;;;5004060;28;20132;-80
2021/12/30 03:17:13;;;;;;;48.00;10.50;;;9.60;99.90;;;;;;5013937;28;20056;-80
2021/12/30 03:19:39;;;;;;;52.25;9.85;;;9.60;99.90;;;;;;5008955;28;20056;-80
2021/12/30 03:22:06;;;;;;;54.13;10.15;;;9.60;99.90;;;;;;5032528;28;20033;-80
2021/12/30 03:24:32;;;;;;;51.00;10.20;;;9.60;99.90;;;;;;5015263;28;20465;-80
2021/12/30 03:26:58;;;;;;;47.10;9.90;;;9.60;99.90;;;;;;5024126;28;20443;-80
2021/12/30 03:29:24;;;;;;;58.80;10.63;;;9.70;99.90;;;;;;5022972;28;20040;-79
2021/12/30 03:31:49;;;;;;;56.78;12.30;;;9.70;99.90;;;;;;5018941;28;20087;-80
2021/12/30 03:34:15;;;;;;;56.95;11.32;;;9.80;99.90;;;;;;5023406;28;20592;-80
2021/12/30 03:36:41;;;;;;;58.28;12.57;;;9.70;99.90;;;;;;5002922;28;20045;-79
2021/12/30 03:39:08;;;;;;;52.05;12.63;;;9.80;99.90;;;;;;4983759;28;20068;-80
2021/12/30 03:41:34;;;;;;;60.22;13.60;;;9.80;99.90;;;;;;4977832;28;20051;-80
2021/12/30 03:44:01;;;;;;;58.92;14.15;;;9.90;99.90;;;;;;4996248;28;20120;-80
2021/12/30 03:46:29;;;;;;;51.13;12.73;;;9.90;99.90;;;;;;5004546;28;20041;-80
2021/12/30 03:48:55;;;;;;;64.55;14.27;;;9.90;99.90;;;;;;5019034;28;20699;-80
2021/12/30 03:51:24;;;;;;;55.40;12.80;;;10.00;99.90;;;;;;5001121;28;20139;-80
2021/12/30 03:53:56;;;;;;;55.05;13.25;;;10.00;99.90;;;;;;5013556;28;20088;-80
2021/12/30 03:56:26;;;;;;;52.05;13.45;;;10.10;99.90;;;;;;5025639;28;20041;-80
2021/12/30 03:58:52;;;;;;;63.28;13.70;;;10.10;99.90;;;;;;5005650;28;20040;-80
2021/12/30 04:01:20;;;;;;;58.65;14.70;;;10.10;99.90;;;;;;5020166;28;20025;-80
2021/12/30 04:03:48;;;;;;;61.15;14.35;;;10.10;99.90;;;;;;5015973;28;20060;-80
2021/12/30 04:06:14;;;;;;;58.70;15.13;;;10.10;99.90;;;;;;5042387;28;20044;-79
2021/12/30 04:08:41;;;;;;;58.20;14.10;;;10.10;99.90;;;;;;5023137;28;20106;-80
2021/12/30 04:11:07;;;;;;;64.35;14.30;;;10.10;99.90;;;;;;5017775;28;20052;-80
2021/12/30 04:13:34;;;;;;;60.30;14.55;;;10.10;99.90;;;;;;5016173;28;20045;-80
2021/12/30 04:16:00;;;;;;;60.08;14.43;;;10.00;99.90;;;;;;5010570;28;20041;-80
2021/12/30 04:18:26;;;;;;;72.65;14.55;;;10.10;99.90;;;;;;4998263;28;20487;-80
2021/12/30 04:20:53;;;;;;;61.97;14.77;;;10.10;99.90;;;;;;5025937;28;20607;-80
2021/12/30 04:23:18;;;;;;;65.47;14.60;;;10.20;99.90;;;;;;5001258;28;20087;-80
2021/12/30 04:25:44;;;;;;;70.22;13.63;;;10.10;99.90;;;;;;5015197;28;20045;-80
2021/12/30 04:28:10;;;;;;;75.43;15.35;;;10.20;99.90;;;;;;5033992;28;20025;-80
2021/12/30 04:30:36;;;;;;;66.30;13.85;;;10.10;99.90;;;;;;5020061;28;20430;-80
2021/12/30 04:33:03;;;;;;;58.75;13.68;;;10.20;99.90;;;;;;5018410;28;20066;-80
2021/12/30 04:35:29;;;;;;;63.42;14.65;;;10.20;99.90;;;;;;5002820;28;20076;-80
2021/12/30 04:37:57;;;;;;;66.18;15.00;;;10.20;99.90;;;;;;4982796;28;20446;-80
2021/12/30 04:40:23;;;;;;;68.25;14.65;;;10.20;99.90;;;;;;5026407;28;20492;-80
2021/12/30 04:42:49;;;;;;;62.22;13.93;;;10.20;99.90;;;;;;5017826;28;20040;-80
2021/12/30 04:45:14;;;;;;;60.95;14.23;;;10.20;99.90;;;;;;5014506;28;20196;-80
2021/12/30 04:47:41;;;;;;;63.10;14.93;;;10.20;99.90;;;;;;5020148;28;20224;-80
2021/12/30 04:50:09;;;;;;;58.08;14.45;;;10.30;99.90;;;;;;5023561;28;20068;-80
2021/12/30 04:52:35;;;;;;;78.82;15.48;;;10.40;99.90;;;;;;5011898;28;20052;-80
2021/12/30 04:55:02;;;;;;;72.38;14.95;;;10.50;99.90;;;;;;5006147;28;20542;-80
2021/12/30 04:57:27;;;;;;;66.85;15.65;;;10.60;99.90;;;;;;4998577;28;20119;-80
2021/12/30 04:59:53;;;;;;;60.95;15.45;;;10.70;99.90;;;;;;5011077;28;20109;-80
2021/12/30 05:02:19;;;;;;;76.68;16.55;;;10.80;99.90;;;;;;4997537;28;20041;-80
2021/12/30 05:04:45;;;;;;;83.05;17.13;;;10.80;99.90;;;;;;5015637;28;20424;-80
2021/12/30 05:07:10;;;;;;;75.15;16.70;;;10.90;99.90;;;;;;5018102;28;20073;-80
2021/12/30 05:09:36;;;;;;;67.43;16.90;;;11.00;99.90;;;;;;5007071;28;20033;-79
2021/12/30 05:12:02;;;;;;;78.78;18.33;;;10.90;99.90;;;;;;4995754;28;20444;-80
2021/12/30 05:14:28;;;;;;;74.97;17.88;;;10.90;99.90;;;;;;5019606;28;20111;-79
2021/12/30 05:16:55;;;;;;;75.25;19.75;;;11.00;99.90;;;;;;5006093;28;20116;-80
2021/12/30 05:19:21;;;;;;;76.90;20.58;;;11.10;99.90;;;;;;5022384;28;20045;-80
2021/12/30 05:21:47;;;;;;;68.50;17.90;;;11.20;99.90;;;;;;5026846;28;20114;-80
2021/12/30 05:24:12;;;;;;;73.38;17.70;;;11.30;99.90;;;;;;5011075;28;20047;-80
2021/12/30 05:26:38;;;;;;;74.70;18.25;;;11.40;99.90;;;;;;5014581;28;20067;-80
2021/12/30 05:29:04;;;;;;;66.22;19.52;;;11.50;99.90;;;;;;5005923;28;20033;-80
2021/12/30 05:31:31;;;;;;;54.15;17.73;;;11.50;99.90;;;;;;5003622;28;20468;-80
2021/12/30 05:33:56;;;;;;;66.55;18.02;;;11.50;99.90;;;;;;5000740;28;20060;-80
2021/12/30 05:36:22;;;;;;;67.97;17.95;;;11.50;99.90;;;;;;5002868;28;20046;-80
2021/12/30 05:38:48;;;;;;;67.82;17.73;;;11.50;99.90;;;;;;5001263;28;20045;-80
2021/12/30 05:41:14;;;;;;;53.53;16.65;;;11.50;99.90;;;;;;5006106;28;20079;-80
2021/12/30 05:43:40;;;;;;;56.72;16.15;;;11.60;99.90;;;;;;4992676;28;20037;-80
2021/12/30 05:46:06;;;;;;;50.55;15.27;;;11.60;99.90;;;;;;5002826;28;20041;-80
2021/12/30 05:48:32;;;;;;;40.03;14.02;;;11.70;99.90;;;;;;5024008;28;20040;-80
2021/12/30 05:51:01;;;;;;;43.00;14.40;;;11.70;99.90;;;;;;5014474;28;20037;-80
2021/12/30 05:53:28;;;;;;;37.08;12.23;;;11.80;99.90;;;;;;5021556;28;20172;-80
2021/12/30 05:55:54;;;;;;;33.13;12.05;;;11.80;99.90;;;;;;5020826;28;20041;-79
2021/12/30 05:58:20;;;;;;;30.20;11.85;;;11.80;99.90;;;;;;5039732;28;20044;-80
2021/12/30 06:00:47;;;;;;;31.67;12.38;;;11.80;99.90;;;;;;5002574;28;20041;-80
2021/12/30 06:03:14;;;;;;;34.35;11.98;;;11.80;99.90;;;;;;5009273;28;20076;-79
2021/12/30 06:05:40;;;;;;;30.73;11.88;;;11.90;99.90;;;;;;4997751;28;20047;-80
2021/12/30 06:08:06;;;;;;;31.30;11.98;;;11.90;99.90;;;;;;5010342;28;20360;-80
2021/12/30 06:10:32;;;;;;;29.75;11.50;;;11.90;99.90;;;;;;5010897;28;20452;-80
2021/12/30 06:12:58;;;;;;;23.88;11.18;;;12.00;99.90;;;;;;5011758;28;20150;-80
2021/12/30 06:15:23;;;;;;;27.60;11.52;;;11.90;99.90;;;;;;5012233;28;20373;-80
2021/12/30 06:17:52;;;;;;;31.33;12.23;;;12.00;99.90;;;;;;5013555;28;20179;-80
2021/12/30 06:20:18;;;;;;;32.22;12.77;;;11.90;99.90;;;;;;5020647;28;20055;-80
2021/12/30 06:22:44;;;;;;;33.30;12.55;;;12.00;99.90;;;;;;5008282;28;20414;-80
2021/12/30 06:25:11;;;;;;;41.08;14.15;;;12.00;99.90;;;;;;4995832;28;20029;-80
2021/12/30 06:27:40;;;;;;;42.58;14.73;;;12.10;99.90;;;;;;4996346;28;20080;-80
2021/12/30 06:30:07;;;;;;;48.05;16.10;;;12.10;99.90;;;;;;5013540;28;20120;-80
2021/12/30 06:32:32;;;;;;;49.78;16.83;;;12.10;99.90;;;;;;5003576;28;20116;-80
2021/12/30 06:34:58;;;;;;;52.20;17.38;;;12.10;99.90;;;;;;5022693;28;20065;-80
2021/12/30 06:37:24;;;;;;;64.65;18.05;;;12.20;99.90;;;;;;5009061;28;20045;-80
2021/12/30 06:39:50;;;;;;;58.45;18.17;;;12.20;99.90;;;;;;5032854;28;20603;-80
2021/12/30 06:42:15;;;;;;;60.53;18.65;;;12.20;99.90;;;;;;5015631;28;20648;-80
2021/12/30 06:44:41;;;;;;;72.20;19.90;;;12.20;99.90;;;;;;5014278;28;20103;-80
2021/12/30 06:47:07;;;;;;;68.97;19.85;;;12.20;99.90;;;;;;5024178;28;20041;-79
2021/12/30 06:49:37;;;;;;;68.68;20.00;;;12.30;99.90;;;;;;5016339;28;20044;-80
2021/12/30 06:52:05;;;;;;;73.90;19.85;;;12.30;99.90;;;;;;5010258;28;20033;-79
2021/12/30 06:54:31;;;;;;;72.97;19.95;;;12.40;99.90;;;;;;5011169;28;20045;-79
2021/12/30 06:56:59;;;;;;;64.35;19.15;;;12.40;99.90;;;;;;5005225;28;20041;-80
2021/12/30 06:59:29;;;;;;;62.83;19.10;;;12.40;99.90;;;;;;5012260;28;20050;-80
2021/12/30 07:01:57;;;;;;;65.70;18.70;;;12.40;99.90;;;;;;5011594;28;20047;-79
2021/12/30 07:04:25;;;;;;;60.00;18.35;;;12.40;99.90;;;;;;5013014;28;20041;-79
2021/12/30 07:06:52;;;;;;;45.22;16.10;;;12.50;99.90;;;;;;5015127;28;20161;-80
2021/12/30 07:09:18;;;;;;;59.33;17.75;;;12.40;99.90;;;;;;5018095;28;20110;-80
2021/12/30 07:11:44;;;;;;;50.35;16.25;;;12.50;99.90;;;;;;5017457;28;20106;-80
2021/12/30 07:14:10;;;;;;;49.60;16.10;;;12.50;99.90;;;;;;4998138;28;20487;-80
2021/12/30 07:16:36;;;;;;;34.63;14.65;;;12.50;99.90;;;;;;5002496;28;20045;-79
2021/12/30 07:19:02;;;;;;;38.15;14.70;;;12.60;99.90;;;;;;5001794;28;20072;-80
2021/12/30 07:21:28;;;;;;;42.05;16.17;;;12.60;99.90;;;;;;5014193;28;20079;-80
2021/12/30 07:23:53;;;;;;;40.78;14.88;;;12.50;99.90;;;;;;5019629;28;20076;-79
2021/12/30 07:26:19;;;;;;;36.28;14.30;;;12.60;99.90;;;;;;4998863;28;20484;-80
2021/12/30 07:28:47;;;;;;;40.65;14.60;;;12.60;99.90;;;;;;5019859;28;20112;-80
2021/12/30 07:31:13;;;;;;;35.33;13.40;;;12.60;99.90;;;;;;5016086;28;20056;-80
2021/12/30 07:33:39;;;;;;;30.90;13.27;;;12.60;99.90;;;;;;5018317;28;20080;-80
2021/12/30 07:36:05;;;;;;;31.60;12.02;;;12.60;99.90;;;;;;5023094;28;20485;-79
2021/12/30 07:38:30;;;;;;;27.50;11.05;;;12.80;99.90;;;;;;5021207;28;20045;-80
2021/12/30 07:40:56;;;;;;;18.70;8.77;;;12.70;99.90;;;;;;5004946;28;20051;-80
2021/12/30 07:43:22;;;;;;;27.35;10.10;;;12.70;99.90;;;;;;5015601;28;20029;-79
2021/12/30 07:45:48;;;;;;;25.27;9.25;;;12.90;99.90;;;;;;4994308;28;20083;-80
2021/12/30 07:48:18;;;;;;;22.05;9.13;;;12.90;99.90;;;;;;5002277;28;20495;-80
2021/12/30 07:50:44;;;;;;;18.45;8.38;;;12.90;99.90;;;;;;5022872;28;20078;-80
2021/12/30 07:53:10;;;;;;;14.82;7.82;;;12.90;99.90;;;;;;5011960;28;20045;-80
2021/12/30 07:55:35;;;;;;;13.80;7.15;;;12.90;99.90;;;;;;5023086;28;20658;-80
2021/12/30 07:58:02;;;;;;;15.82;6.65;;;12.90;99.90;;;;;;5014093;28;20104;-80
2021/12/30 08:00:28;;;;;;;11.77;5.88;;;13.00;99.90;;;;;;5020297;28;20087;-80
2021/12/30 08:02:57;;;;;;;11.43;5.57;;;12.90;99.90;;;;;;5008937;28;20548;-80
2021/12/30 08:05:22;;;;;;;14.85;6.60;;;13.00;99.90;;;;;;5011182;28;20053;-80
2021/12/30 08:07:49;;;;;;;14.32;6.00;;;13.00;99.90;;;;;;5000468;28;20429;-80
2021/12/30 08:10:18;;;;;;;12.77;5.20;;;13.00;99.90;;;;;;5015860;28;20037;-80
2021/12/30 08:12:45;;;;;;;8.85;4.63;;;13.00;99.90;;;;;;5013656;28;20111;-79
2021/12/30 08:15:12;;;;;;;13.27;4.35;;;13.00;99.90;;;;;;5012949;28;20050;-80
2021/12/30 08:17:40;;;;;;;6.80;3.55;;;13.10;99.90;;;;;;5000501;28;20053;-80
2021/12/30 08:20:07;;;;;;;5.40;3.30;;;13.10;99.90;;;;;;5016064;28;20488;-80
2021/12/30 08:22:34;;;;;;;5.47;2.75;;;13.20;99.90;;;;;;5012793;28;20041;-80
2021/12/30 08:25:00;;;;;;;4.30;2.88;;;13.20;99.90;;;;;;5009149;28;20111;-80
2021/12/30 08:27:29;;;;;;;4.75;2.53;;;13.20;99.90;;;;;;4997601;28;20127;-80
2021/12/30 08:29:55;;;;;;;3.75;2.55;;;13.20;99.90;;;;;;5037041;28;20144;-80
2021/12/30 08:32:21;;;;;;;3.58;2.60;;;13.20;99.90;;;;;;5010977;28;20625;-80
2021/12/30 08:34:46;;;;;;;3.58;2.75;;;13.20;99.90;;;;;;5017936;28;20583;-80
2021/12/30 08:37:13;;;;;;;4.57;2.83;;;13.30;99.90;;;;;;5008768;28;20037;-79
2021/12/30 08:39:43;;;;;;;5.38;3.50;;;13.30;99.90;;;;;;5009018;28;20072;-80
2021/12/30 08:42:25;;;;;;;6.45;4.63;;;13.30;99.90;;;;;;5017185;28;20040;-80
2021/12/30 08:44:52;;;;;;;9.70;5.10;;;13.30;99.90;;;;;;5006365;28;20032;-80
2021/12/30 08:47:18;;;;;;;9.13;6.50;;;13.40;99.90;;;;;;5022355;28;20041;-80
2021/12/30 08:49:46;;;;;;;11.38;7.55;;;13.40;99.90;;;;;;5020329;28;20048;-80
2021/12/30 08:52:19;;;;;;;11.82;7.05;;;13.40;99.90;;;;;;4998494;28;20037;-80
2021/12/30 08:54:47;;;;;;;9.02;5.35;;;13.40;99.90;;;;;;5012455;28;20110;-80
2021/12/30 08:57:13;;;;;;;11.75;7.43;;;13.50;99.90;;;;;;5018688;28;20447;-80
2021/12/30 08:59:39;;;;;;;14.07;7.97;;;13.50;99.90;;;;;;5000030;28;20033;-80
2021/12/30 09:02:06;;;;;;;14.55;8.13;;;13.40;99.90;;;;;;5023497;28;20088;-80
2021/12/30 09:04:32;;;;;;;15.50;7.82;;;13.50;99.90;;;;;;5007674;28;20407;-80
2021/12/30 09:06:58;;;;;;;9.35;5.88;;;13.40;99.90;;;;;;5008596;28;20045;-80
2021/12/30 09:09:24;;;;;;;12.75;6.78;;;13.50;99.90;;;;;;4994829;28;20373;-80
2021/12/30 09:11:51;;;;;;;15.20;7.13;;;13.60;99.90;;;;;;5015373;28;20120;-80
2021/12/30 09:14:16;;;;;;;15.13;7.57;;;13.50;99.90;;;;;;5013374;28;20116;-80
2021/12/30 09:16:43;;;;;;;17.25;7.45;;;13.40;99.90;;;;;;5010526;28;20124;-80
2021/12/30 09:19:12;;;;;;;12.45;7.40;;;13.50;99.90;;;;;;5021918;28;20049;-80
2021/12/30 09:21:39;;;;;;;15.07;6.30;;;13.60;99.90;;;;;;5009094;28;20803;-80
2021/12/30 09:24:06;;;;;;;15.60;6.50;;;13.50;99.90;;;;;;5012858;28;20125;-80
2021/12/30 09:26:32;;;;;;;13.75;6.07;;;13.50;99.90;;;;;;5008062;28;20053;-80
2021/12/30 09:28:59;;;;;;;14.38;5.85;;;13.50;99.90;;;;;;5016236;28;20043;-80
2021/12/30 09:31:24;;;;;;;9.07;5.05;;;13.50;99.90;;;;;;5025406;28;20025;-80
2021/12/30 09:33:54;;;;;;;9.10;4.88;;;13.60;99.90;;;;;;5020805;28;20061;-80
2021/12/30 09:36:19;;;;;;;9.80;5.18;;;13.50;99.90;;;;;;4996302;28;20299;-80
2021/12/30 09:38:45;;;;;;;10.07;5.93;;;13.60;99.90;;;;;;5006402;28;20126;-80
2021/12/30 09:41:11;;;;;;;11.75;5.60;;;13.40;99.90;;;;;;5028782;28;20546;-80
2021/12/30 09:43:37;;;;;;;12.70;5.75;;;13.40;99.90;;;;;;5016898;28;20528;-80
2021/12/30 09:46:02;;;;;;;11.95;5.70;;;13.40;99.90;;;;;;4999813;28;20044;-80
2021/12/30 09:48:31;;;;;;;16.67;6.40;;;13.50;99.90;;;;;;5011040;28;20072;-80
2021/12/30 09:50:58;;;;;;;10.52;6.75;;;13.50;99.90;;;;;;4998957;28;20091;-80
2021/12/30 09:53:25;;;;;;;12.15;6.95;;;13.50;99.90;;;;;;5032720;28;20045;-80
2021/12/30 09:55:53;;;;;;;15.90;7.45;;;13.50;99.90;;;;;;5039702;28;20128;-80
2021/12/30 09:58:19;;;;;;;13.63;7.13;;;13.50;99.90;;;;;;5018200;28;20291;-80
2021/12/30 10:00:48;;;;;;;16.15;7.70;;;13.50;99.90;;;;;;5016716;28;20224;-80
2021/12/30 10:03:14;;;;;;;16.80;8.00;;;13.50;99.90;;;;;;5006864;28;20332;-80
2021/12/30 10:05:41;;;;;;;16.25;8.10;;;13.50;99.90;;;;;;5018351;28;20053;-80
2021/12/30 10:08:21;;;;;;;18.50;8.30;;;13.40;99.90;;;;;;5008074;28;20045;-79
2021/12/30 10:10:58;;;;;;;15.38;7.15;;;13.40;99.90;;;;;;4997767;28;20558;-80
2021/12/30 10:13:30;;;;;;;17.35;7.43;;;13.30;99.90;;;;;;5013503;28;20037;-80
2021/12/30 10:16:16;;;;;;;17.48;7.38;;;13.40;99.90;;;;;;5016929;28;20037;-80
2021/12/30 10:18:46;;;;;;;18.25;6.40;;;13.30;99.90;;;;;;5006973;28;20064;-80
2021/12/30 10:21:23;;;;;;;16.33;6.97;;;13.30;99.90;;;;;;5017436;28;20037;-80
2021/12/30 10:23:55;;;;;;;16.85;7.10;;;13.20;99.90;;;;;;5003115;28;20079;-80
2021/12/30 10:26:24;;;;;;;16.70;6.60;;;13.30;99.90;;;;;;5030263;28;20049;-80
2021/12/30 10:28:54;;;;;;;20.52;6.78;;;13.30;99.90;;;;;;5002697;28;20060;-80
2021/12/30 10:31:32;;;;;;;16.35;5.50;;;13.30;99.90;;;;;;5015608;28;20479;-80
2021/12/30 10:34:01;;;;;;;17.73;6.82;;;13.20;99.90;;;;;;5020004;28;20092;-80
2021/12/30 10:36:41;;;;;;;21.77;7.28;;;13.30;99.90;;;;;;4999725;28;20044;-80
2021/12/30 10:39:39;;;;;;;17.48;6.80;;;13.20;99.90;;;;;;5002814;28;20107;-80
2021/12/30 10:42:05;;;;;;;20.77;7.38;;;13.20;99.90;;;;;;4984025;28;20147;-80
2021/12/30 10:44:58;;;;;;;18.92;7.30;;;13.10;99.90;;;;;;5019014;28;20077;-80
2021/12/30 10:47:30;;;;;;;22.83;7.32;;;13.20;99.90;;;;;;5020704;28;20622;-80
2021/12/30 10:49:57;;;;;;;17.50;6.80;;;13.10;99.90;;;;;;5010541;28;20069;-80
2021/12/30 10:52:24;;;;;;;23.17;7.63;;;13.20;99.90;;;;;;5013089;28;20049;-80
2021/12/30 10:54:50;;;;;;;20.27;7.55;;;13.20;99.90;;;;;;5019033;28;20636;-80
2021/12/30 10:57:16;;;;;;;23.92;7.70;;;13.10;99.90;;;;;;5009654;28;20228;-80
2021/12/30 10:59:44;;;;;;;22.75;7.13;;;13.10;99.90;;;;;;5015598;28;20091;-80
2021/12/30 11:02:21;;;;;;;25.65;7.82;;;13.10;99.90;;;;;;5013070;28;20079;-80
2021/12/30 11:05:01;;;;;;;27.50;8.77;;;13.10;99.90;;;;;;5009376;28;20041;-80
2021/12/30 11:07:50;;;;;;;25.88;7.18;;;13.10;99.90;;;;;;5018340;28;20143;-80
2021/12/30 11:10:31;;;;;;;30.95;8.55;;;13.10;99.90;;;;;;5001360;28;20025;-81
2021/12/30 11:13:13;;;;;;;29.80;7.10;;;13.10;99.90;;;;;;5019495;28;20056;-80
2021/12/30 11:15:39;;;;;;;26.30;7.90;;;13.00;99.90;;;;;;5002297;28;20049;-80
2021/12/30 11:18:10;;;;;;;26.83;7.50;;;13.00;99.90;;;;;;5008119;28;20262;-80
2021/12/30 11:20:41;;;;;;;28.95;7.38;;;13.00;99.90;;;;;;5024160;28;20037;-80
2021/12/30 11:23:07;;;;;;;33.95;7.55;;;13.00;99.90;;;;;;5008788;28;20048;-80
2021/12/30 11:25:33;;;;;;;30.02;6.93;;;13.00;99.90;;;;;;5016239;28;20052;-80
2021/12/30 11:28:02;;;;;;;33.50;7.90;;;13.00;99.90;;;;;;5005053;28;20439;-80
2021/12/30 11:30:28;;;;;;;33.10;7.75;;;13.00;99.90;;;;;;5013921;28;20030;-80
2021/12/30 11:32:54;;;;;;;28.83;7.57;;;13.00;99.90;;;;;;4999889;28;20605;-80
2021/12/30 11:35:23;;;;;;;33.70;8.07;;;13.00;99.90;;;;;;5006373;28;20046;-80
2021/12/30 11:37:52;;;;;;;29.63;7.78;;;12.90;99.90;;;;;;5028422;28;20464;-80
2021/12/30 11:40:24;;;;;;;33.20;7.88;;;12.90;99.90;;;;;;5013276;28;20468;-80
2021/12/30 11:43:08;;;;;;;26.02;7.82;;;13.00;99.90;;;;;;5003549;28;20655;-80
2021/12/30 11:45:39;;;;;;;32.58;7.30;;;12.90;99.90;;;;;;5025207;28;20032;-80
2021/12/30 11:48:21;;;;;;;28.52;8.52;;;12.90;99.90;;;;;;5016617;28;20080;-80
2021/12/30 11:50:48;;;;;;;32.25;8.00;;;12.80;99.90;;;;;;5010302;28;20124;-80
2021/12/30 11:53:34;;;;;;;32.03;8.05;;;12.90;99.90;;;;;;5018087;28;20040;-81
2021/12/30 11:56:22;;;;;;;32.60;8.23;;;12.90;99.90;;;;;;5025232;28;20479;-80
2021/12/30 11:58:59;;;;;;;42.17;7.65;;;12.90;99.90;;;;;;5004333;28;20118;-81
2021/12/30 12:01:24;;;;;;;26.27;7.00;;;12.90;99.90;;;;;;5008324;28;20116;-81
2021/12/30 12:03:53;;;;;;;26.48;7.68;;;12.90;99.90;;;;;;5009078;28;20137;-80
2021/12/30 12:06:25;;;;;;;29.00;7.43;;;12.90;99.90;;;;;;5014375;28;20049;-80
2021/12/30 12:08:54;;;;;;;34.50;8.23;;;12.90;99.90;;;;;;5011735;28;20048;-80
2021/12/30 12:11:26;;;;;;;32.20;7.40;;;13.00;99.90;;;;;;5040140;28;20040;-80
2021/12/30 12:13:54;;;;;;;37.35;7.82;;;13.00;99.90;;;;;;5006542;28;20094;-80
2021/12/30 12:16:43;;;;;;;31.10;8.05;;;13.00;99.90;;;;;;5019275;28;20040;-80
2021/12/30 12:19:13;;;;;;;35.25;7.93;;;13.00;99.90;;;;;;5008491;28;20107;-80
2021/12/30 12:21:48;;;;;;;30.13;6.55;;;12.90;99.90;;;;;;5012719;28;20044;-80
2021/12/30 12:24:35;;;;;;;22.77;6.40;;;12.90;99.90;;;;;;5005467;28;20047;-80
2021/12/30 12:27:30;;;;;;;28.60;6.95;;;13.00;99.90;;;;;;5007444;28;20472;-80
2021/12/30 12:29:58;;;;;;;31.33;7.03;;;13.10;99.90;;;;;;5005564;28;20137;-80
2021/12/30 12:32:38;;;;;;;21.45;6.55;;;13.00;99.90;;;;;;5034452;28;20299;-81
2021/12/30 12:35:13;;;;;;;31.98;7.68;;;13.00;99.90;;;;;;5008416;28;20045;-80
2021/12/30 12:37:44;;;;;;;30.08;7.60;;;13.00;99.90;;;;;;5024183;28;20045;-81
2021/12/30 12:40:41;;;;;;;25.67;7.00;;;13.00;99.90;;;;;;5015781;28;20527;-81